Time;durP1;ratioP1;P1;durP2;ratioP2;P2;SDS_P1;SDS_P2;PMS_P1;PMS_P2;Temp;Humidity;BMP_temperature;BMP_pressure;BME280_temperature;BME280_humidity;BME280_pressure;Samples;Min_cycle;Max_cycle;Signal;HPM_P1;HPM_P2
2021/04/14 00:01:53;;;;;;;1.90;0.88;;;2.40;99.90;;;;;;5045696;28;20056;-74
2021/04/14 00:04:19;;;;;;;3.50;1.02;;;2.40;99.90;;;;;;5043883;28;20051;-73
2021/04/14 00:06:55;;;;;;;1.83;1.15;;;2.40;99.90;;;;;;5043932;28;20060;-74
2021/04/14 00:09:21;;;;;;;4.00;1.60;;;2.40;99.90;;;;;;5045309;28;20052;-73
2021/04/14 00:11:50;;;;;;;0.93;0.73;;;2.30;99.90;;;;;;5044929;28;20470;-76
2021/04/14 00:14:15;;;;;;;9.15;1.58;;;2.30;99.90;;;;;;5043993;28;20033;-75
2021/04/14 00:16:41;;;;;;;1.67;1.10;;;2.30;99.90;;;;;;5044955;28;20025;-73
2021/04/14 00:19:07;;;;;;;2.58;1.35;;;2.30;99.90;;;;;;5043582;28;20059;-73
2021/04/14 00:21:33;;;;;;;10.75;1.40;;;2.30;99.90;;;;;;5045024;28;20440;-73
2021/04/14 00:24:00;;;;;;;5.10;1.25;;;2.30;99.90;;;;;;5045018;28;20037;-72
2021/04/14 00:26:26;;;;;;;2.38;1.48;;;2.30;99.90;;;;;;5045298;28;20051;-73
2021/04/14 00:28:51;;;;;;;3.80;0.98;;;2.30;99.90;;;;;;5044968;28;20025;-72
2021/04/14 00:31:18;;;;;;;1.63;0.95;;;2.30;99.90;;;;;;5043686;28;20032;-74
2021/04/14 00:33:45;;;;;;;5.88;1.55;;;2.20;99.90;;;;;;5044802;28;20045;-75
2021/04/14 00:36:11;;;;;;;2.75;0.90;;;2.20;99.90;;;;;;5044752;28;20032;-73
2021/04/14 00:38:38;;;;;;;10.73;1.23;;;2.20;99.90;;;;;;5044647;28;20029;-74
2021/04/14 00:41:15;;;;;;;1.00;0.80;;;2.20;99.90;;;;;;5044689;28;20025;-74
2021/04/14 00:43:41;;;;;;;3.38;0.70;;;2.20;99.90;;;;;;5043493;28;20065;-76
2021/04/14 00:46:07;;;;;;;2.40;1.38;;;2.10;99.90;;;;;;5044686;28;20363;-74
2021/04/14 00:48:33;;;;;;;4.20;1.17;;;2.10;99.90;;;;;;5044629;28;20030;-74
2021/04/14 00:51:00;;;;;;;1.85;0.98;;;2.10;99.90;;;;;;5044948;28;20036;-74
2021/04/14 00:53:27;;;;;;;1.42;0.88;;;2.10;99.90;;;;;;5044978;28;20036;-73
2021/04/14 00:55:53;;;;;;;10.45;1.23;;;2.00;99.90;;;;;;5044918;28;20026;-73
2021/04/14 00:58:19;;;;;;;3.22;1.40;;;2.00;99.90;;;;;;5044779;28;20021;-74
2021/04/14 01:00:49;;;;;;;1.98;0.82;;;2.00;99.90;;;;;;5044503;28;20432;-73
2021/04/14 01:03:19;;;;;;;8.55;1.58;;;2.00;99.90;;;;;;5044541;28;20030;-73
2021/04/14 01:05:47;;;;;;;4.53;1.10;;;2.00;99.90;;;;;;5042973;28;20061;-74
2021/04/14 01:08:13;;;;;;;2.75;1.00;;;2.00;99.90;;;;;;5042990;28;20026;-72
2021/04/14 01:10:38;;;;;;;1.30;1.00;;;2.00;99.90;;;;;;5043018;28;20033;-72
2021/04/14 01:13:04;;;;;;;0.88;0.60;;;2.00;99.90;;;;;;5043119;28;20033;-72
2021/04/14 01:15:36;;;;;;;1.38;0.63;;;2.00;99.90;;;;;;5044269;28;20161;-74
2021/04/14 01:18:03;;;;;;;4.35;1.88;;;2.00;99.90;;;;;;5043007;28;20036;-73
2021/04/14 01:20:28;;;;;;;4.15;1.63;;;2.00;99.90;;;;;;5044271;28;20061;-73
2021/04/14 01:22:54;;;;;;;1.08;0.88;;;2.00;99.90;;;;;;5044651;28;20034;-74
2021/04/14 01:25:27;;;;;;;3.13;1.38;;;2.00;99.90;;;;;;5043018;28;20061;-72
2021/04/14 01:27:53;;;;;;;0.90;0.68;;;1.90;99.90;;;;;;5044525;28;20466;-74
2021/04/14 01:30:26;;;;;;;6.15;1.10;;;1.90;99.90;;;;;;5043009;28;20036;-73
2021/04/14 01:32:52;;;;;;;7.97;1.25;;;1.90;99.90;;;;;;5044577;28;20040;-73
2021/04/14 01:35:20;;;;;;;1.10;0.63;;;1.90;99.90;;;;;;5044481;28;20108;-72
2021/04/14 01:37:50;;;;;;;2.10;1.25;;;1.90;99.90;;;;;;5046786;28;20411;-74
2021/04/14 01:40:19;;;;;;;3.35;1.33;;;1.90;99.90;;;;;;5046531;28;20310;-72
2021/04/14 01:42:45;;;;;;;2.80;0.85;;;1.90;99.90;;;;;;5047983;28;20029;-73
2021/04/14 01:45:13;;;;;;;9.98;1.40;;;1.80;99.90;;;;;;5048009;28;20091;-74
2021/04/14 01:47:39;;;;;;;1.63;1.20;;;1.80;99.90;;;;;;5047779;28;20112;-73
2021/04/14 01:50:06;;;;;;;1.23;0.73;;;1.80;99.90;;;;;;5046657;28;20029;-74
2021/04/14 01:52:32;;;;;;;2.80;0.90;;;1.80;99.90;;;;;;5047743;28;20029;-73
2021/04/14 01:54:59;;;;;;;4.70;1.05;;;1.70;99.90;;;;;;5048095;28;20029;-74
2021/04/14 01:57:25;;;;;;;5.72;1.05;;;1.80;99.90;;;;;;5051339;28;20096;-74
2021/04/14 01:59:52;;;;;;;3.42;1.15;;;1.70;99.90;;;;;;5049264;28;20036;-74
2021/04/14 02:02:18;;;;;;;2.97;1.13;;;1.70;99.90;;;;;;5047553;28;20053;-72
2021/04/14 02:04:44;;;;;;;5.03;1.17;;;1.70;99.90;;;;;;5047088;28;20116;-73
2021/04/14 02:07:10;;;;;;;0.98;0.90;;;1.70;99.90;;;;;;5047428;28;20029;-72
2021/04/14 02:09:35;;;;;;;1.65;1.35;;;1.70;99.90;;;;;;5042393;28;20025;-72
2021/04/14 02:12:01;;;;;;;3.40;1.15;;;1.70;99.90;;;;;;5027652;28;20026;-73
2021/04/14 02:14:27;;;;;;;1.85;0.90;;;1.70;99.90;;;;;;5026365;28;20044;-73
2021/04/14 02:16:53;;;;;;;1.65;1.00;;;1.70;99.90;;;;;;5027728;28;20022;-74
2021/04/14 02:19:19;;;;;;;5.32;1.40;;;1.70;99.90;;;;;;5027206;28;20127;-73
2021/04/14 02:21:44;;;;;;;3.55;1.27;;;1.70;99.90;;;;;;5027412;28;20026;-73
2021/04/14 02:24:10;;;;;;;7.53;1.30;;;1.60;99.90;;;;;;5027363;28;20046;-73
2021/04/14 02:26:35;;;;;;;3.47;1.20;;;1.70;99.90;;;;;;5027246;28;20026;-73
2021/04/14 02:29:01;;;;;;;3.70;1.30;;;1.60;99.90;;;;;;5027391;28;20029;-73
2021/04/14 02:31:32;;;;;;;3.70;1.13;;;1.60;99.90;;;;;;5026130;28;20076;-74
2021/04/14 02:34:00;;;;;;;5.38;0.65;;;1.60;99.90;;;;;;5027476;28;20034;-73
2021/04/14 02:36:25;;;;;;;7.45;1.30;;;1.60;99.90;;;;;;5027587;28;20037;-73
2021/04/14 02:38:51;;;;;;;7.35;1.80;;;1.50;99.90;;;;;;5027579;28;20026;-72
2021/04/14 02:41:17;;;;;;;5.60;1.70;;;1.50;99.90;;;;;;5025794;28;20118;-73
2021/04/14 02:43:43;;;;;;;5.63;1.20;;;1.50;99.90;;;;;;5027180;28;20041;-72
2021/04/14 02:46:09;;;;;;;6.47;1.58;;;1.60;99.90;;;;;;5027127;28;20029;-74
2021/04/14 02:48:35;;;;;;;1.50;1.08;;;1.60;99.90;;;;;;5025586;28;20084;-73
2021/04/14 02:51:00;;;;;;;4.95;1.50;;;1.50;99.90;;;;;;5027014;28;20112;-73
2021/04/14 02:53:26;;;;;;;2.83;1.17;;;1.60;99.90;;;;;;5027002;28;20504;-72
2021/04/14 02:55:51;;;;;;;4.93;1.08;;;1.50;99.90;;;;;;5027226;28;20124;-74
2021/04/14 02:58:17;;;;;;;0.85;0.63;;;1.50;99.90;;;;;;5025480;28;20030;-74
2021/04/14 03:00:43;;;;;;;2.50;1.02;;;1.50;99.90;;;;;;5026729;28;20041;-73
2021/04/14 03:03:08;;;;;;;1.48;1.08;;;1.50;99.90;;;;;;5026690;28;20088;-73
2021/04/14 03:05:35;;;;;;;1.35;0.93;;;1.40;99.90;;;;;;5026451;28;20044;-73
2021/04/14 03:08:01;;;;;;;1.55;0.80;;;1.40;99.90;;;;;;5026731;28;20026;-72
2021/04/14 03:10:28;;;;;;;1.90;1.00;;;1.40;99.90;;;;;;5027097;28;20029;-74
2021/04/14 03:12:54;;;;;;;3.33;1.67;;;1.40;99.90;;;;;;5026745;28;20037;-73
2021/04/14 03:15:29;;;;;;;1.08;0.80;;;1.40;99.90;;;;;;5026836;28;20034;-74
2021/04/14 03:17:55;;;;;;;5.93;0.93;;;1.40;99.90;;;;;;5026679;28;20105;-74
2021/04/14 03:20:21;;;;;;;3.35;1.33;;;1.40;99.90;;;;;;5024997;28;20045;-74
2021/04/14 03:22:47;;;;;;;4.25;0.93;;;1.40;99.90;;;;;;5026288;28;20100;-73
2021/04/14 03:25:14;;;;;;;3.58;1.05;;;1.40;99.90;;;;;;5024603;28;20490;-73
2021/04/14 03:27:40;;;;;;;1.35;0.80;;;1.40;99.90;;;;;;5026249;28;20018;-73
2021/04/14 03:30:07;;;;;;;9.45;1.63;;;1.30;99.90;;;;;;5026266;28;20079;-72
2021/04/14 03:32:33;;;;;;;1.45;1.20;;;1.30;99.90;;;;;;5026128;28;20030;-72
2021/04/14 03:35:00;;;;;;;2.92;1.48;;;1.30;99.90;;;;;;5025013;28;20148;-74
2021/04/14 03:37:25;;;;;;;2.53;1.00;;;1.30;99.90;;;;;;5024949;28;20026;-75
2021/04/14 03:39:51;;;;;;;1.52;1.10;;;1.30;99.90;;;;;;5024920;28;20029;-75
2021/04/14 03:42:17;;;;;;;2.30;1.23;;;1.30;99.90;;;;;;5025905;28;20041;-74
2021/04/14 03:44:42;;;;;;;3.38;1.10;;;1.30;99.90;;;;;;5025870;28;20050;-73
2021/04/14 03:47:08;;;;;;;6.63;1.23;;;1.30;99.90;;;;;;5024586;28;20033;-72
2021/04/14 03:49:34;;;;;;;5.32;1.35;;;1.30;99.90;;;;;;5024503;28;20045;-73
2021/04/14 03:52:01;;;;;;;8.13;1.30;;;1.30;99.90;;;;;;5024691;28;20061;-73
2021/04/14 03:54:28;;;;;;;1.70;0.88;;;1.30;99.90;;;;;;5025932;28;20076;-75
2021/04/14 03:56:54;;;;;;;2.38;1.42;;;1.30;99.90;;;;;;5024650;28;20034;-74
2021/04/14 03:59:19;;;;;;;5.47;1.30;;;1.30;99.90;;;;;;5024001;28;20049;-73
2021/04/14 04:01:45;;;;;;;2.55;1.58;;;1.30;99.90;;;;;;5025720;28;20034;-74
2021/04/14 04:04:11;;;;;;;2.50;1.30;;;1.30;99.90;;;;;;5024184;28;20038;-74
2021/04/14 04:06:36;;;;;;;2.10;1.15;;;1.30;99.90;;;;;;5025902;28;20049;-71
2021/04/14 04:09:03;;;;;;;3.58;1.38;;;1.30;99.90;;;;;;5024402;28;20112;-76
2021/04/14 04:11:29;;;;;;;2.95;1.45;;;1.30;99.90;;;;;;5025721;28;20049;-73
2021/04/14 04:13:58;;;;;;;3.40;1.80;;;1.20;99.90;;;;;;5024293;28;20030;-77
2021/04/14 04:16:24;;;;;;;3.53;1.98;;;1.20;99.90;;;;;;5024009;28;20037;-75
2021/04/14 04:18:50;;;;;;;2.90;1.48;;;1.20;99.90;;;;;;5025510;28;20046;-77
2021/04/14 04:21:15;;;;;;;3.35;1.88;;;1.20;99.90;;;;;;5025440;28;20030;-76
2021/04/14 04:23:41;;;;;;;4.38;1.85;;;1.10;99.90;;;;;;5024840;28;20032;-77
2021/04/14 04:26:07;;;;;;;4.05;1.88;;;1.10;99.90;;;;;;5034651;28;20097;-77
2021/04/14 04:28:33;;;;;;;3.63;1.45;;;1.10;99.90;;;;;;5042778;28;20036;-78
2021/04/14 04:30:59;;;;;;;4.32;1.55;;;1.10;99.90;;;;;;5035156;28;20021;-77
2021/04/14 04:33:25;;;;;;;1.65;1.35;;;1.20;99.90;;;;;;5037568;28;20029;-77
2021/04/14 04:35:50;;;;;;;11.50;1.63;;;1.10;99.90;;;;;;5030275;28;20049;-77
2021/04/14 04:38:16;;;;;;;4.93;1.23;;;1.10;99.90;;;;;;5025149;28;20582;-76
2021/04/14 04:40:42;;;;;;;3.17;1.50;;;1.10;99.90;;;;;;5024769;28;20133;-75
2021/04/14 04:43:09;;;;;;;3.13;1.33;;;1.20;99.90;;;;;;5027537;28;20100;-76
2021/04/14 04:45:34;;;;;;;11.27;1.95;;;1.20;99.90;;;;;;5034830;28;20038;-78
2021/04/14 04:48:01;;;;;;;6.88;1.40;;;1.20;99.90;;;;;;5043062;28;20053;-76
2021/04/14 04:50:28;;;;;;;3.08;1.60;;;1.10;99.90;;;;;;5044635;28;20032;-77
2021/04/14 04:53:00;;;;;;;3.08;1.20;;;1.20;99.90;;;;;;5044375;28;20030;-76
2021/04/14 04:55:26;;;;;;;8.85;1.92;;;1.20;99.90;;;;;;5042547;28;20030;-77
2021/04/14 04:57:52;;;;;;;9.13;1.90;;;1.20;99.90;;;;;;5044465;28;20025;-78
2021/04/14 05:00:19;;;;;;;2.97;1.15;;;1.20;99.90;;;;;;5044364;28;20056;-79
2021/04/14 05:02:44;;;;;;;2.95;2.05;;;1.20;99.90;;;;;;5044307;28;20034;-76
2021/04/14 05:05:15;;;;;;;2.38;1.40;;;1.30;99.90;;;;;;5043375;28;20368;-76
2021/04/14 05:07:41;;;;;;;5.25;2.13;;;1.40;99.90;;;;;;5042967;28;20045;-77
2021/04/14 05:10:08;;;;;;;4.40;1.60;;;1.40;99.90;;;;;;5045429;28;20037;-74
2021/04/14 05:12:34;;;;;;;7.90;1.85;;;1.50;99.90;;;;;;5047217;28;20053;-75
2021/04/14 05:14:59;;;;;;;5.28;1.00;;;1.50;99.90;;;;;;5050819;28;20117;-77
2021/04/14 05:17:25;;;;;;;7.40;1.27;;;1.60;99.90;;;;;;5050317;28;20084;-75
2021/04/14 05:19:51;;;;;;;4.97;1.33;;;1.60;99.90;;;;;;5048932;28;20061;-79
2021/04/14 05:22:17;;;;;;;2.80;1.50;;;1.70;99.90;;;;;;5054825;28;20526;-76
2021/04/14 05:24:42;;;;;;;1.90;0.88;;;1.80;99.90;;;;;;5051251;28;20041;-76
2021/04/14 05:27:08;;;;;;;6.53;1.58;;;1.90;99.90;;;;;;5048416;28;20100;-75
2021/04/14 05:29:34;;;;;;;2.28;1.15;;;1.90;99.90;;;;;;5048177;28;20021;-75
2021/04/14 05:32:00;;;;;;;7.28;1.35;;;2.10;99.90;;;;;;5048325;28;20132;-77
2021/04/14 05:34:26;;;;;;;2.67;0.93;;;2.20;99.90;;;;;;5048153;28;20026;-77
2021/04/14 05:36:55;;;;;;;2.22;1.20;;;2.20;99.90;;;;;;5041095;28;20025;-77
2021/04/14 05:39:20;;;;;;;4.10;1.27;;;2.30;99.90;;;;;;5034163;28;20045;-76
2021/04/14 05:41:46;;;;;;;7.57;1.15;;;2.30;99.90;;;;;;5048322;28;20040;-76
2021/04/14 05:44:12;;;;;;;0.93;0.80;;;2.40;99.90;;;;;;5047852;28;20037;-76
2021/04/14 05:46:38;;;;;;;2.22;1.58;;;2.40;99.90;;;;;;5047977;28;20021;-76
2021/04/14 05:49:04;;;;;;;3.47;1.33;;;2.40;99.90;;;;;;5047853;28;20025;-77
2021/04/14 05:51:31;;;;;;;1.95;0.95;;;2.40;99.90;;;;;;5047203;28;20076;-76
2021/04/14 05:53:58;;;;;;;7.88;1.27;;;2.40;99.90;;;;;;5046935;28;20025;-77
2021/04/14 05:56:24;;;;;;;3.88;1.27;;;2.50;99.90;;;;;;5048198;28;20025;-79
2021/04/14 05:58:50;;;;;;;2.78;1.35;;;2.50;99.90;;;;;;5047926;28;20081;-76
2021/04/14 06:01:20;;;;;;;1.10;1.00;;;2.70;99.90;;;;;;5047631;28;20052;-76
2021/04/14 06:03:48;;;;;;;8.27;1.17;;;2.60;99.90;;;;;;5047412;28;20402;-75
2021/04/14 06:06:15;;;;;;;8.82;1.38;;;2.70;99.90;;;;;;5047833;28;20056;-76
2021/04/14 06:08:41;;;;;;;3.50;1.30;;;2.70;99.90;;;;;;5047367;28;20089;-75
2021/04/14 06:11:07;;;;;;;2.00;1.00;;;2.70;99.90;;;;;;5046639;28;20034;-77
2021/04/14 06:13:33;;;;;;;4.55;2.08;;;2.80;99.90;;;;;;5046195;28;20025;-80
2021/04/14 06:15:59;;;;;;;4.10;1.58;;;2.80;99.90;;;;;;5047728;28;20198;-78
2021/04/14 06:18:26;;;;;;;3.00;1.27;;;2.80;99.90;;;;;;5046736;28;20092;-80
2021/04/14 06:20:54;;;;;;;5.95;1.70;;;2.80;99.90;;;;;;5046550;28;20108;-76
2021/04/14 06:23:22;;;;;;;11.55;1.48;;;2.80;99.90;;;;;;5045517;28;20037;-76
2021/04/14 06:26:02;;;;;;;2.78;1.05;;;2.80;99.90;;;;;;5044603;28;20056;-77
2021/04/14 06:28:28;;;;;;;9.30;1.08;;;2.80;99.90;;;;;;5044940;28;20394;-77
2021/04/14 06:30:55;;;;;;;2.53;1.02;;;2.80;99.90;;;;;;5045155;28;20028;-77
2021/04/14 06:33:34;;;;;;;2.92;1.20;;;2.80;99.90;;;;;;5044791;28;20029;-75
2021/04/14 06:35:59;;;;;;;4.75;1.67;;;2.80;99.90;;;;;;5046570;28;20033;-75
2021/04/14 06:38:30;;;;;;;1.08;0.77;;;2.80;99.90;;;;;;5046249;28;20079;-75
2021/04/14 06:44:45;;;;;;;4.35;1.15;;;2.80;99.90;;;;;;5037795;28;20053;-76
2021/04/14 06:47:20;;;;;;;1.10;0.85;;;3.00;99.90;;;;;;5043892;28;20026;-76
2021/04/14 06:49:54;;;;;;;1.38;0.85;;;3.10;99.90;;;;;;5045057;28;20056;-75
2021/04/14 06:52:34;;;;;;;1.75;1.15;;;3.30;99.90;;;;;;5044125;28;20053;-76
2021/04/14 06:55:14;;;;;;;1.42;1.00;;;3.40;99.90;;;;;;5044356;28;20462;-78
2021/04/14 06:57:51;;;;;;;5.32;1.02;;;3.50;99.90;;;;;;5045409;28;20026;-77
2021/04/14 07:00:22;;;;;;;12.82;1.75;;;3.60;99.90;;;;;;5045612;28;20036;-76
2021/04/14 07:02:58;;;;;;;1.27;0.95;;;3.70;99.90;;;;;;5044075;28;20039;-76
2021/04/14 07:05:35;;;;;;;3.10;0.90;;;3.70;99.90;;;;;;5044261;28;20128;-78
2021/04/14 07:08:06;;;;;;;4.75;0.82;;;3.80;99.90;;;;;;5043775;28;20124;-78
2021/04/14 07:10:36;;;;;;;4.97;1.10;;;3.90;99.90;;;;;;5044096;28;20422;-77
2021/04/14 07:13:05;;;;;;;7.47;1.05;;;4.10;99.90;;;;;;5043910;28;20021;-77
2021/04/14 07:15:31;;;;;;;7.43;0.98;;;4.30;99.90;;;;;;5043234;28;20025;-76
2021/04/14 07:21:01;;;;;;;1.65;0.85;;;4.60;99.90;;;;;;5101429;27;20356;-78
2021/04/14 07:23:27;;;;;;;4.10;1.25;;;4.80;99.90;;;;;;5080507;28;20060;-78
2021/04/14 07:26:00;;;;;;;1.95;0.60;;;5.00;99.90;;;;;;5080622;28;20478;-79
2021/04/14 07:28:56;;;;;;;0.93;0.70;;;5.10;99.90;;;;;;5081849;28;20466;-78
2021/04/14 07:31:35;;;;;;;15.10;2.05;;;5.40;99.90;;;;;;5081189;28;20093;-76
2021/04/14 07:34:34;;;;;;;5.95;1.05;;;5.50;99.90;;;;;;5080361;28;20072;-78
2021/04/14 07:37:18;;;;;;;1.00;0.60;;;5.50;99.90;;;;;;5080680;28;20032;-81
2021/04/14 07:40:11;;;;;;;1.50;0.93;;;5.60;99.90;;;;;;5080289;28;20457;-79
2021/04/14 07:43:12;;;;;;;9.55;1.50;;;5.60;99.90;;;;;;5081659;28;20029;-78
2021/04/14 07:45:39;;;;;;;2.17;1.05;;;5.80;99.90;;;;;;5080131;28;20104;-78
2021/04/14 07:48:06;;;;;;;2.60;0.90;;;5.90;99.90;;;;;;5081416;28;20020;-81
2021/04/14 07:50:45;;;;;;;2.33;0.73;;;6.00;99.90;;;;;;5080197;28;20025;-78
2021/04/14 07:53:36;;;;;;;5.00;1.38;;;6.20;99.90;;;;;;5079983;28;20119;-78
2021/04/14 07:56:06;;;;;;;3.72;1.00;;;6.20;99.90;;;;;;5081432;28;20029;-79
2021/04/14 07:58:34;;;;;;;2.80;1.73;;;6.20;99.90;;;;;;5079659;28;20090;-78
2021/04/14 08:01:24;;;;;;;8.73;1.10;;;6.20;99.90;;;;;;5080281;28;20445;-79
2021/04/14 08:03:52;;;;;;;5.05;0.75;;;6.20;99.90;;;;;;5072090;28;20064;-81
2021/04/14 08:06:25;;;;;;;7.05;1.48;;;6.30;99.90;;;;;;5072318;28;20033;-77
2021/04/14 08:08:52;;;;;;;7.97;1.30;;;6.40;99.90;;;;;;5059020;28;20032;-80
2021/04/14 08:11:31;;;;;;;5.63;1.20;;;6.50;99.90;;;;;;5060646;28;20453;-78
2021/04/14 08:14:24;;;;;;;3.97;0.98;;;6.60;99.90;;;;;;5059744;28;20397;-78
2021/04/14 08:16:54;;;;;;;0.90;0.43;;;6.80;99.90;;;;;;5060795;28;20116;-78
2021/04/14 08:19:33;;;;;;;5.03;0.95;;;6.90;99.90;;;;;;5059391;28;20060;-76
2021/04/14 08:22:22;;;;;;;0.82;0.55;;;7.20;99.90;;;;;;5059791;28;20097;-77
2021/04/14 08:24:54;;;;;;;2.00;0.95;;;7.30;99.90;;;;;;5060893;28;20073;-78
2021/04/14 08:27:24;;;;;;;1.38;0.90;;;7.70;99.90;;;;;;5058983;28;20031;-82
2021/04/14 08:30:00;;;;;;;3.20;0.68;;;7.70;99.90;;;;;;5058795;28;20764;-80
2021/04/14 08:32:28;;;;;;;1.38;0.55;;;7.90;99.90;;;;;;5046666;28;20040;-80
2021/04/14 08:35:01;;;;;;;6.43;1.55;;;8.00;99.90;;;;;;5050748;28;20033;-78
2021/04/14 08:37:29;;;;;;;1.52;0.60;;;8.30;99.90;;;;;;5051869;28;20461;-79
2021/04/14 08:40:07;;;;;;;2.05;0.90;;;8.60;99.90;;;;;;5046897;28;20128;-80
2021/04/14 08:42:36;;;;;;;1.50;0.70;;;9.00;99.90;;;;;;5047271;28;20029;-76
2021/04/14 08:45:11;;;;;;;2.17;0.93;;;9.20;99.90;;;;;;5052541;28;20041;-77
2021/04/14 08:47:41;;;;;;;0.88;0.50;;;9.20;99.90;;;;;;5052613;28;20124;-77
2021/04/14 08:50:23;;;;;;;2.35;0.73;;;9.40;99.90;;;;;;5053779;28;20029;-78
2021/04/14 08:52:53;;;;;;;6.68;1.02;;;9.40;99.90;;;;;;5054479;28;20030;-77
2021/04/14 08:55:20;;;;;;;2.40;0.80;;;9.20;99.90;;;;;;5050810;28;20037;-79
2021/04/14 08:57:46;;;;;;;2.53;0.77;;;8.80;99.90;;;;;;5065315;28;20123;-79
2021/04/14 09:00:13;;;;;;;2.95;0.30;;;8.30;99.90;;;;;;5066329;28;20040;-80
2021/04/14 09:02:42;;;;;;;0.25;0.20;;;7.90;99.90;;;;;;5064322;28;20044;-75
2021/04/14 09:05:16;;;;;;;1.27;0.40;;;7.20;99.90;;;;;;5066629;28;20045;-76
2021/04/14 09:07:42;;;;;;;0.77;0.38;;;6.50;99.90;;;;;;5053329;28;20037;-75
2021/04/14 09:10:10;;;;;;;5.13;0.52;;;5.80;99.90;;;;;;5060731;28;20482;-76
2021/04/14 09:12:57;;;;;;;2.05;0.55;;;5.40;99.90;;;;;;5053510;28;20025;-75
2021/04/14 09:15:23;;;;;;;7.43;0.70;;;5.20;99.90;;;;;;5054650;28;20029;-74
2021/04/14 09:18:04;;;;;;;11.88;0.52;;;5.10;99.90;;;;;;5044958;28;20104;-74
2021/04/14 09:20:36;;;;;;;0.82;0.57;;;5.00;99.90;;;;;;5056950;28;20041;-74
2021/04/14 09:23:14;;;;;;;4.38;0.65;;;5.10;99.90;;;;;;5053943;28;20033;-74
2021/04/14 09:26:02;;;;;;;2.33;0.70;;;5.10;99.90;;;;;;5056857;28;20032;-75
2021/04/14 09:28:36;;;;;;;1.95;0.85;;;5.20;99.90;;;;;;5065054;28;20367;-75
2021/04/14 09:31:15;;;;;;;1.85;0.77;;;5.30;99.90;;;;;;5066305;28;20553;-76
2021/04/14 09:33:47;;;;;;;1.80;0.63;;;5.50;99.90;;;;;;5066173;28;20075;-74
2021/04/14 09:36:29;;;;;;;0.30;0.17;;;5.70;99.90;;;;;;5066000;28;20085;-75
2021/04/14 09:39:10;;;;;;;3.00;0.70;;;5.80;99.90;;;;;;5066098;28;20083;-75
2021/04/14 09:41:37;;;;;;;1.63;1.02;;;5.90;99.90;;;;;;5066044;28;20116;-73
2021/04/14 09:44:40;;;;;;;0.50;0.50;;;6.00;99.90;;;;;;5064827;28;20029;-73
2021/04/14 09:47:27;;;;;;;2.47;0.32;;;6.40;99.90;;;;;;5065859;28;20482;-74
2021/04/14 09:49:57;;;;;;;0.98;0.43;;;6.80;99.90;;;;;;5064755;28;20097;-75
2021/04/14 09:52:33;;;;;;;1.35;0.50;;;7.00;99.90;;;;;;5065687;28;20025;-74
2021/04/14 09:55:16;;;;;;;0.95;0.50;;;6.80;99.90;;;;;;5064424;28;20461;-75
2021/04/14 09:57:45;;;;;;;1.73;0.50;;;6.60;99.90;;;;;;5064129;28;20098;-74
2021/04/14 10:00:15;;;;;;;3.13;0.82;;;6.40;99.90;;;;;;5063960;28;20071;-74
2021/04/14 10:02:44;;;;;;;1.52;0.55;;;6.20;99.90;;;;;;5064085;28;20040;-76
2021/04/14 10:05:10;;;;;;;3.80;0.60;;;6.10;99.90;;;;;;5065481;28;20024;-74
2021/04/14 10:07:40;;;;;;;2.13;0.73;;;6.10;99.90;;;;;;5063976;28;20044;-74
2021/04/14 10:10:09;;;;;;;0.73;0.50;;;6.20;99.90;;;;;;5063800;28;20028;-76
2021/04/14 10:12:36;;;;;;;2.47;1.20;;;6.40;99.90;;;;;;5064414;28;20516;-74
2021/04/14 10:15:04;;;;;;;4.03;0.50;;;6.70;99.90;;;;;;5065375;28;20049;-77
2021/04/14 10:17:32;;;;;;;2.25;0.63;;;7.20;99.90;;;;;;5065358;28;20115;-77
2021/04/14 10:20:38;;;;;;;1.88;0.60;;;7.80;99.90;;;;;;5063340;28;20079;-74
2021/04/14 10:23:19;;;;;;;0.45;0.28;;;8.50;99.90;;;;;;5039205;28;20034;-75
2021/04/14 10:25:45;;;;;;;0.60;0.25;;;9.00;99.90;;;;;;5041311;28;20506;-74
2021/04/14 10:28:16;;;;;;;1.77;0.30;;;9.40;99.90;;;;;;5045815;28;20064;-73
2021/04/14 10:30:59;;;;;;;0.55;0.10;;;9.80;99.90;;;;;;5064719;28;20040;-74
2021/04/14 10:33:26;;;;;;;0.32;0.20;;;10.00;99.90;;;;;;5052696;28;20036;-73
2021/04/14 10:35:53;;;;;;;4.35;0.25;;;10.40;99.90;;;;;;5063501;28;20029;-73
2021/04/14 10:38:29;;;;;;;0.22;0.13;;;10.70;99.90;;;;;;5064847;28;20390;-73
2021/04/14 10:40:56;;;;;;;3.53;0.30;;;11.10;99.90;;;;;;5064570;28;20036;-73
2021/04/14 10:43:27;;;;;;;0.50;0.28;;;11.30;99.90;;;;;;5063359;28;20400;-75
2021/04/14 10:46:06;;;;;;;2.33;0.47;;;11.40;99.90;;;;;;5063258;28;20064;-74
2021/04/14 10:48:38;;;;;;;0.40;0.20;;;11.50;99.90;;;;;;5064329;28;20029;-74
2021/04/14 10:51:37;;;;;;;1.02;0.22;;;11.40;99.90;;;;;;5063141;28;20025;-73
2021/04/14 10:54:08;;;;;;;0.40;0.20;;;11.10;99.90;;;;;;5062362;28;20037;-73
2021/04/14 10:56:34;;;;;;;1.08;0.28;;;11.10;99.90;;;;;;5063934;28;20036;-74
2021/04/14 10:59:07;;;;;;;1.38;0.40;;;11.10;99.90;;;;;;5064434;28;20043;-74
2021/04/14 11:01:36;;;;;;;1.23;0.30;;;11.10;99.90;;;;;;5054125;28;20041;-75
2021/04/14 11:04:29;;;;;;;0.15;0.13;;;11.50;99.90;;;;;;5051131;28;20033;-74
2021/04/14 11:07:00;;;;;;;0.63;0.38;;;12.00;99.90;;;;;;5050628;28;20326;-74
2021/04/14 11:09:28;;;;;;;0.65;0.28;;;12.40;99.90;;;;;;5047347;28;20025;-74
2021/04/14 11:11:54;;;;;;;0.20;0.00;;;12.20;99.90;;;;;;5044250;28;20474;-75
2021/04/14 11:14:20;;;;;;;0.20;0.20;;;11.80;99.90;;;;;;5042856;28;20036;-73
2021/04/14 11:16:49;;;;;;;1.77;0.40;;;11.40;99.90;;;;;;5042603;28;20030;-73
2021/04/14 11:19:18;;;;;;;0.30;0.30;;;10.80;99.90;;;;;;5043691;28;20083;-72
2021/04/14 11:21:44;;;;;;;2.17;0.43;;;10.30;99.90;;;;;;5043677;28;20053;-74
2021/04/14 11:24:12;;;;;;;0.60;0.32;;;10.10;99.90;;;;;;5042369;28;20034;-74
2021/04/14 11:27:03;;;;;;;1.30;0.43;;;10.30;99.90;;;;;;5043952;28;20115;-74
2021/04/14 11:29:34;;;;;;;0.20;0.13;;;10.80;99.90;;;;;;5042404;28;20049;-71
2021/04/14 11:32:20;;;;;;;4.38;0.55;;;11.20;99.90;;;;;;5044159;28;20113;-73
2021/04/14 11:35:00;;;;;;;2.50;0.28;;;11.70;99.90;;;;;;5043929;28;20035;-71
2021/04/14 11:37:40;;;;;;;0.52;0.38;;;12.00;99.90;;;;;;5042922;28;20029;-70
2021/04/14 11:40:18;;;;;;;0.60;0.32;;;12.10;99.90;;;;;;5042873;28;20048;-75
2021/04/14 11:43:00;;;;;;;1.02;0.45;;;12.60;99.90;;;;;;5043695;28;20056;-75
2021/04/14 11:45:36;;;;;;;1.27;0.63;;;13.10;99.90;;;;;;5042605;28;20021;-77
2021/04/14 11:48:16;;;;;;;1.52;0.77;;;13.00;99.90;;;;;;5043526;28;20151;-74
2021/04/14 11:50:44;;;;;;;1.13;0.63;;;12.60;99.90;;;;;;5043686;28;20033;-72
2021/04/14 11:53:25;;;;;;;3.53;0.57;;;12.60;99.90;;;;;;5043742;28;20022;-75
2021/04/14 11:55:53;;;;;;;1.23;0.45;;;12.80;99.90;;;;;;5043709;28;20503;-73
2021/04/14 11:58:38;;;;;;;1.85;0.73;;;12.70;99.90;;;;;;5043764;28;20038;-73
2021/04/14 12:01:05;;;;;;;0.70;0.40;;;12.10;99.90;;;;;;5043771;28;20093;-72
2021/04/14 12:03:37;;;;;;;0.63;0.30;;;11.90;99.90;;;;;;5043681;28;20072;-73
2021/04/14 12:06:04;;;;;;;0.45;0.30;;;12.30;99.90;;;;;;5050442;28;20041;-73
2021/04/14 12:08:30;;;;;;;0.20;0.20;;;12.90;99.90;;;;;;5050831;28;20029;-73
2021/04/14 12:10:57;;;;;;;1.00;0.30;;;13.20;99.90;;;;;;5066344;28;20393;-74
2021/04/14 12:13:23;;;;;;;0.55;0.22;;;13.40;99.90;;;;;;5065874;28;20032;-72
2021/04/14 12:15:50;;;;;;;0.50;0.25;;;13.20;99.90;;;;;;5054511;28;20037;-72
2021/04/14 12:18:16;;;;;;;3.50;0.20;;;12.80;99.90;;;;;;5055364;28;20102;-73
2021/04/14 12:20:42;;;;;;;0.40;0.25;;;12.40;99.90;;;;;;5057769;28;20061;-74
2021/04/14 12:23:08;;;;;;;0.65;0.40;;;12.00;99.90;;;;;;5047498;28;20032;-73
2021/04/14 12:25:33;;;;;;;0.52;0.30;;;11.70;99.90;;;;;;5047294;28;20052;-72
2021/04/14 12:27:59;;;;;;;0.35;0.30;;;11.60;99.90;;;;;;5047482;28;20025;-72
2021/04/14 12:30:26;;;;;;;0.35;0.30;;;11.60;99.90;;;;;;5047450;28;20041;-73
2021/04/14 12:32:53;;;;;;;1.98;0.65;;;11.60;99.90;;;;;;5047265;28;20026;-74
2021/04/14 12:35:20;;;;;;;1.83;0.40;;;11.40;99.90;;;;;;5047236;28;20029;-73
2021/04/14 12:37:46;;;;;;;3.42;0.57;;;11.40;99.90;;;;;;5046961;28;20093;-72
2021/04/14 12:40:13;;;;;;;2.72;0.43;;;11.30;99.90;;;;;;5045577;28;20077;-72
2021/04/14 12:42:39;;;;;;;1.55;0.88;;;11.50;99.90;;;;;;5047035;28;20025;-72
2021/04/14 12:45:18;;;;;;;0.65;0.20;;;12.00;99.90;;;;;;5047091;28;20026;-73
2021/04/14 12:47:43;;;;;;;1.63;0.65;;;12.40;99.90;;;;;;5045809;28;20371;-75
2021/04/14 12:50:09;;;;;;;0.60;0.35;;;12.90;99.90;;;;;;5046992;28;20037;-75
2021/04/14 12:52:46;;;;;;;5.47;0.38;;;12.80;99.90;;;;;;5047223;28;20017;-73
2021/04/14 12:55:17;;;;;;;2.70;0.50;;;12.60;99.90;;;;;;5047018;28;20033;-72
2021/04/14 12:57:44;;;;;;;0.80;0.32;;;12.30;99.90;;;;;;5046754;28;20030;-74
2021/04/14 13:00:16;;;;;;;0.60;0.22;;;12.00;99.90;;;;;;5046770;28;20037;-73
2021/04/14 13:03:00;;;;;;;3.03;0.38;;;12.60;99.90;;;;;;5045505;28;20037;-74
2021/04/14 13:05:33;;;;;;;2.30;0.55;;;13.30;99.90;;;;;;5046660;28;20032;-74
2021/04/14 13:08:15;;;;;;;0.30;0.30;;;13.50;99.90;;;;;;5047065;28;20394;-75
2021/04/14 13:10:40;;;;;;;0.50;0.30;;;13.70;99.90;;;;;;5046449;28;20036;-72
2021/04/14 13:13:06;;;;;;;1.20;0.40;;;14.00;99.90;;;;;;5046554;28;20041;-75
2021/04/14 13:15:41;;;;;;;8.90;0.43;;;14.10;99.90;;;;;;5046420;28;20052;-76
2021/04/14 13:18:07;;;;;;;1.63;0.45;;;14.30;99.90;;;;;;5046320;28;20034;-74